createdAt,value
2022-10-06T00:00:38.989Z,101649.94
2022-10-06T00:05:40.539Z,101675.13
2022-10-06T00:10:41.893Z,101674.31
2022-10-06T00:15:43.242Z,101697.72
2022-10-06T00:20:44.707Z,101707.34
2022-10-06T00:25:46.018Z,101714.31
2022-10-06T00:30:47.554Z,101720.41
2022-10-06T00:35:56.438Z,101734.28
2022-10-06T00:40:57.955Z,101739.53
2022-10-06T00:45:59.346Z,101745.63
2022-10-06T00:51:00.756Z,101758.66
2022-10-06T00:56:01.971Z,101769.06
2022-10-06T01:01:03.936Z,101763.00
2022-10-06T01:06:05.727Z,101773.38
2022-10-06T01:11:13.136Z,101789.00
2022-10-06T01:16:26.872Z,101802.00
2022-10-06T01:21:38.450Z,101801.16
2022-10-06T01:26:45.214Z,101811.56
2022-10-06T01:31:46.603Z,101808.91
2022-10-06T01:36:47.936Z,101815.03
2022-10-06T01:41:49.916Z,101821.91
2022-10-06T01:46:51.321Z,101823.63
2022-10-06T01:51:52.677Z,101828.84
2022-10-06T01:56:53.933Z,101827.97
2022-10-06T02:01:55.770Z,101830.56
2022-10-06T02:06:57.132Z,101835.75
2022-10-06T02:11:58.443Z,101847.00
2022-10-06T02:17:00.406Z,101860.88
2022-10-06T02:22:07.215Z,101860.84
2022-10-06T02:27:08.631Z,101885.97
2022-10-06T02:32:10.714Z,101889.44
2022-10-06T02:37:13.077Z,101895.47
2022-10-06T02:42:14.408Z,101905.84
2022-10-06T02:47:16.271Z,101924.03
2022-10-06T02:52:17.520Z,101920.59
2022-10-06T02:57:18.816Z,101925.72
2022-10-06T03:02:20.295Z,101938.72
2022-10-06T03:07:21.733Z,101952.56
2022-10-06T03:12:23.063Z,101956.88
2022-10-06T03:17:24.405Z,101968.16
2022-10-06T03:22:25.759Z,101979.34
2022-10-06T03:27:27.139Z,101986.28
2022-10-06T03:32:28.483Z,101987.09
2022-10-06T03:37:29.845Z,101983.56
2022-10-06T03:42:32.143Z,102000.91
2022-10-06T03:47:33.488Z,102005.19
2022-10-06T03:52:34.740Z,102030.31
2022-10-06T03:57:36.051Z,102039.78
2022-10-06T04:02:37.365Z,102047.56
2022-10-06T04:07:38.685Z,102046.69
2022-10-06T04:12:40.057Z,102048.41
2022-10-06T04:17:41.287Z,102068.25
2022-10-06T04:22:42.614Z,102070.81
2022-10-06T04:27:43.954Z,102072.50
2022-10-06T04:32:45.905Z,102094.09
2022-10-06T04:37:47.226Z,102090.63
2022-10-06T04:42:49.244Z,102093.06
2022-10-06T04:47:50.600Z,102119.03
2022-10-06T04:52:52.975Z,102119.88
2022-10-06T04:57:55.129Z,102131.03
2022-10-06T05:02:56.531Z,102139.59
2022-10-06T05:07:57.763Z,102143.88
2022-10-06T05:12:59.166Z,102135.00
2022-10-06T05:18:00.535Z,102168.00
2022-10-06T05:23:01.898Z,102174.78
2022-10-06T05:28:03.215Z,102170.41
2022-10-06T05:33:07.246Z,102166.63
2022-10-06T05:38:11.576Z,102194.38
2022-10-06T05:43:12.901Z,102205.63
2022-10-06T05:48:14.214Z,102209.75
2022-10-06T05:53:15.952Z,102220.91
2022-10-06T05:58:18.601Z,102217.22
2022-10-06T06:03:20.012Z,102243.13
2022-10-06T06:08:21.330Z,102249.94
2022-10-06T06:13:23.339Z,102251.66
2022-10-06T06:18:24.693Z,102262.94
2022-10-06T06:23:31.624Z,102271.59
2022-10-06T06:28:35.369Z,102281.94
2022-10-06T06:33:39.247Z,102282.03
2022-10-06T06:38:40.824Z,102299.47
2022-10-06T06:43:42.459Z,102295.25
2022-10-06T06:48:44.939Z,102300.53
2022-10-06T06:53:46.273Z,102315.53
2022-10-06T06:58:47.904Z,102337.19
2022-10-06T07:03:59.035Z,102332.22
2022-10-06T07:09:00.873Z,102327.00
2022-10-06T07:14:04.841Z,102344.59
2022-10-06T07:19:25.622Z,102355.94
2022-10-06T07:24:46.738Z,102356.91
2022-10-06T07:29:54.235Z,102370.00
2022-10-06T07:34:56.624Z,102379.59
2022-10-06T07:39:58.181Z,102383.06
2022-10-06T07:45:18.023Z,102404.72
2022-10-06T07:50:19.337Z,102404.84
2022-10-06T07:55:20.642Z,102411.75
2022-10-06T08:00:22.307Z,102416.19
2022-10-06T08:05:23.784Z,102420.44
2022-10-06T08:10:25.446Z,102426.69
2022-10-06T08:15:26.851Z,102415.38
2022-10-06T08:20:28.224Z,102438.97
2022-10-06T08:25:29.557Z,102439.06
2022-10-06T08:30:30.900Z,102411.00
2022-10-06T08:35:32.966Z,102456.50
2022-10-06T08:40:35.168Z,102465.25
2022-10-06T08:45:44.600Z,102468.78
2022-10-06T08:51:21.148Z,102477.44
2022-10-06T08:56:39.618Z,102466.19
2022-10-06T09:01:45.364Z,102476.72
2022-10-06T09:06:59.674Z,102480.28
2022-10-06T09:12:35.554Z,102479.28
2022-10-06T09:17:49.696Z,102497.72
2022-10-06T09:22:51.528Z,102500.41
2022-10-06T09:27:58.740Z,102505.53
2022-10-06T09:33:05.612Z,102504.91
2022-10-06T09:38:08.974Z,102515.38
2022-10-06T09:43:29.375Z,102526.66
2022-10-06T09:48:30.687Z,102524.13
2022-10-06T09:53:35.538Z,102529.44
2022-10-06T09:58:39.504Z,102530.28
2022-10-06T10:04:20.168Z,102519.88
2022-10-06T10:09:22.718Z,102540.88
2022-10-06T10:14:24.543Z,102522.56
2022-10-06T10:19:33.972Z,102533.13
2022-10-06T10:24:50.029Z,102541.88
2022-10-06T10:30:01.907Z,102528.97
2022-10-06T10:35:23.442Z,102534.34
2022-10-06T10:40:51.695Z,102541.25
2022-10-06T10:46:01.479Z,102546.53
2022-10-06T10:51:32.118Z,102544.03
2022-10-06T10:56:33.868Z,102531.00
2022-10-06T11:01:45.993Z,102552.88
2022-10-06T11:07:13.691Z,102544.38
2022-10-06T11:12:37.085Z,102546.16
2022-10-06T11:17:44.566Z,102536.75
2022-10-06T11:22:59.592Z,102550.91
2022-10-06T11:28:17.106Z,102550.09
2022-10-06T11:33:29.824Z,102550.03
2022-10-06T11:38:42.149Z,102542.22
2022-10-06T11:44:03.526Z,102551.06
2022-10-06T11:49:32.453Z,102551.97
2022-10-06T11:54:46.261Z,102541.50
2022-10-06T11:59:48.523Z,102544.19
2022-10-06T12:10:36.266Z,102530.34
2022-10-06T12:21:50.578Z,102519.81
2022-10-06T12:27:10.517Z,102524.28
2022-10-06T12:32:24.700Z,102517.34
2022-10-06T12:37:29.130Z,102512.13
2022-10-06T12:42:31.422Z,102515.59
2022-10-06T12:47:39.293Z,102478.97
2022-10-06T12:52:47.880Z,102512.16
2022-10-06T12:57:54.103Z,102524.34
2022-10-06T13:02:57.682Z,102515.66
2022-10-06T13:08:02.028Z,102501.72
2022-10-06T13:13:21.146Z,102515.69
2022-10-06T13:18:23.203Z,102507.00
2022-10-06T13:23:37.697Z,102503.56
2022-10-06T13:28:52.575Z,102494.84
2022-10-06T13:34:06.668Z,102493.09
2022-10-06T13:39:21.941Z,102503.59
2022-10-06T13:44:26.061Z,102492.25
2022-10-06T13:49:45.169Z,102499.22
2022-10-06T13:54:54.381Z,102465.16
2022-10-06T14:00:23.040Z,102482.66
2022-10-06T14:05:29.414Z,102494.00
2022-10-06T14:10:48.447Z,102498.38
2022-10-06T14:15:53.806Z,102500.16
2022-10-06T14:20:57.059Z,102454.78
2022-10-06T14:25:58.956Z,102478.38
2022-10-06T14:31:00.407Z,102486.25
2022-10-06T14:36:02.719Z,102501.00
2022-10-06T14:41:04.035Z,102488.84
2022-10-06T14:46:08.479Z,102463.53
2022-10-06T14:51:11.617Z,102495.78
2022-10-06T14:56:15.693Z,102494.03
2022-10-06T15:01:19.479Z,102492.28
2022-10-06T15:06:39.917Z,102494.00
2022-10-06T15:11:41.496Z,102482.72
2022-10-06T15:16:44.413Z,102488.78
2022-10-06T15:21:46.094Z,102477.47
2022-10-06T15:27:06.413Z,102480.09
2022-10-06T15:32:08.212Z,102473.13
2022-10-06T15:37:09.612Z,102450.41
2022-10-06T15:42:11.017Z,102477.44
2022-10-06T15:47:12.853Z,102476.56
2022-10-06T15:52:14.213Z,102465.19
2022-10-06T15:57:20.638Z,102477.34
2022-10-06T16:02:22.970Z,102462.53
2022-10-06T16:07:24.502Z,102476.47
2022-10-06T16:12:28.314Z,102475.59
2022-10-06T16:17:30.573Z,102473.84
2022-10-06T16:22:31.947Z,102468.56
2022-10-06T16:27:33.686Z,102472.88
2022-10-06T16:32:35.210Z,102473.75
2022-10-06T16:37:36.627Z,102484.97
2022-10-06T16:42:38.216Z,102483.22
2022-10-06T16:47:40.138Z,102487.47
2022-10-06T16:52:41.658Z,102482.13
2022-10-06T16:57:43.697Z,102489.06
2022-10-06T17:02:45.036Z,102495.09
2022-10-06T17:07:46.378Z,102501.09
2022-10-06T17:12:47.655Z,102479.28
2022-10-06T17:17:48.983Z,102485.22
2022-10-06T17:22:50.256Z,102486.88
2022-10-06T17:27:51.564Z,102485.06
2022-10-06T17:32:52.944Z,102492.81
2022-10-06T17:37:54.294Z,102490.13
2022-10-06T17:42:55.641Z,102494.31
2022-10-06T17:47:57.013Z,102486.44
2022-10-06T17:52:59.335Z,102486.19
2022-10-06T17:58:00.718Z,102487.84
2022-10-06T18:03:02.004Z,102488.53
2022-10-06T18:08:05.251Z,102491.84
2022-10-06T18:13:07.121Z,102492.66
2022-10-06T18:18:08.445Z,102490.84
2022-10-06T18:23:09.885Z,102495.88
2022-10-06T18:28:11.983Z,102474.81
2022-10-06T18:35:57.508Z,102482.63
2022-10-06T18:38:41.617Z,102483.28
2022-10-06T18:43:43.709Z,102479.50
2022-10-06T18:49:00.272Z,102488.84
2022-10-06T18:54:05.305Z,102451.97
2022-10-06T18:59:13.621Z,102484.34
2022-10-06T19:04:18.148Z,102475.44
2022-10-06T19:09:22.331Z,102489.31
2022-10-06T19:14:29.693Z,102487.38
2022-10-06T19:19:31.752Z,102503.00
2022-10-06T19:24:35.786Z,102482.81
2022-10-06T19:29:37.848Z,102499.97
2022-10-06T19:34:39.224Z,102492.94
2022-10-06T19:39:42.695Z,102501.53
2022-10-06T19:44:44.330Z,102477.88
2022-10-06T19:49:45.670Z,102487.06
2022-10-06T19:54:47.172Z,102488.69
2022-10-06T19:59:50.690Z,102485.09
2022-10-06T20:04:52.024Z,102491.97
2022-10-06T20:09:53.462Z,102496.03
2022-10-06T20:14:54.752Z,102493.38
2022-10-06T20:19:57.728Z,102494.06
2022-10-06T20:25:01.684Z,102484.84
2022-10-06T20:30:03.712Z,102483.94
2022-10-06T20:35:05.158Z,102494.50
2022-10-06T20:40:25.200Z,102500.19
2022-10-06T20:45:26.569Z,102501.78
2022-10-06T20:50:31.021Z,102492.66
2022-10-06T20:55:32.361Z,102476.97
2022-10-06T21:00:40.592Z,102487.38
2022-10-06T21:05:48.101Z,102471.13
2022-10-06T21:11:00.395Z,102477.78
2022-10-06T21:16:02.824Z,102476.16
2022-10-06T21:21:07.568Z,102463.63
2022-10-06T21:26:12.461Z,102479.94
2022-10-06T21:31:16.380Z,102442.56
2022-10-06T21:36:22.216Z,102467.53
2022-10-06T21:41:28.671Z,102459.81
2022-10-06T21:46:33.018Z,102448.41
2022-10-06T21:51:34.897Z,102453.59
2022-10-06T21:56:36.240Z,102448.06
2022-10-06T22:01:40.652Z,102440.19
2022-10-06T22:06:43.647Z,102438.47
2022-10-06T22:11:46.071Z,102428.16
2022-10-06T22:16:48.089Z,102415.88
2022-10-06T22:21:49.466Z,102420.13
2022-10-06T22:26:50.848Z,102421.19
2022-10-06T22:31:52.656Z,102411.72
2022-10-06T22:36:54.031Z,102416.78
2022-10-06T22:41:55.397Z,102404.88
2022-10-06T22:46:56.831Z,102403.69
2022-10-06T22:51:58.107Z,102400.22
2022-10-06T22:56:59.508Z,102384.69
2022-10-06T23:02:00.829Z,102384.28
2022-10-06T23:07:02.184Z,102373.97
2022-10-06T23:12:03.686Z,102379.44
2022-10-06T23:17:05.021Z,102362.75
2022-10-06T23:22:06.352Z,102365.56
2022-10-06T23:27:07.712Z,102326.00
2022-10-06T23:32:09.116Z,102363.97
2022-10-06T23:37:10.536Z,102343.44
2022-10-06T23:42:12.139Z,102355.63
2022-10-06T23:47:13.387Z,102358.06
2022-10-06T23:52:14.719Z,102351.94
2022-10-06T23:57:16.096Z,102343.78
